sensor_id;sensor_type;location;lat;lon;timestamp;P1;durP1;ratioP1;P2;durP2;ratioP2
41921;SDS011;27609;51.002;5.354;2022-07-29T00:00:58;8.88;;;3.13;;
41921;SDS011;27609;51.002;5.354;2022-07-29T00:03:24;6.65;;;3.67;;
41921;SDS011;27609;51.002;5.354;2022-07-29T00:05:50;5.10;;;2.72;;
41921;SDS011;27609;51.002;5.354;2022-07-29T00:08:18;9.00;;;3.28;;
41921;SDS011;27609;51.002;5.354;2022-07-29T00:10:44;9.45;;;3.50;;
41921;SDS011;27609;51.002;5.354;2022-07-29T00:13:10;8.98;;;3.40;;
41921;SDS011;27609;51.002;5.354;2022-07-29T00:15:36;10.32;;;3.47;;
41921;SDS011;27609;51.002;5.354;2022-07-29T00:18:02;7.00;;;3.00;;
41921;SDS011;27609;51.002;5.354;2022-07-29T00:20:28;6.97;;;3.42;;
41921;SDS011;27609;51.002;5.354;2022-07-29T00:22:54;9.00;;;3.47;;
41921;SDS011;27609;51.002;5.354;2022-07-29T00:25:20;8.38;;;4.10;;
41921;SDS011;27609;51.002;5.354;2022-07-29T00:27:46;7.97;;;3.60;;
41921;SDS011;27609;51.002;5.354;2022-07-29T00:30:12;8.73;;;3.47;;
41921;SDS011;27609;51.002;5.354;2022-07-29T00:32:38;6.50;;;3.40;;
41921;SDS011;27609;51.002;5.354;2022-07-29T00:35:04;7.00;;;3.35;;
41921;SDS011;27609;51.002;5.354;2022-07-29T00:37:49;7.93;;;3.65;;
41921;SDS011;27609;51.002;5.354;2022-07-29T00:40:15;11.70;;;4.20;;
41921;SDS011;27609;51.002;5.354;2022-07-29T00:42:44;8.88;;;3.30;;
41921;SDS011;27609;51.002;5.354;2022-07-29T00:45:12;10.60;;;3.42;;
41921;SDS011;27609;51.002;5.354;2022-07-29T00:47:38;8.68;;;3.28;;
41921;SDS011;27609;51.002;5.354;2022-07-29T00:50:05;9.82;;;3.50;;
41921;SDS011;27609;51.002;5.354;2022-07-29T00:52:32;8.45;;;3.88;;
41921;SDS011;27609;51.002;5.354;2022-07-29T00:55:00;10.90;;;3.35;;
41921;SDS011;27609;51.002;5.354;2022-07-29T00:57:28;5.10;;;3.25;;
41921;SDS011;27609;51.002;5.354;2022-07-29T00:59:54;6.68;;;3.08;;
41921;SDS011;27609;51.002;5.354;2022-07-29T01:02:20;6.22;;;3.05;;
41921;SDS011;27609;51.002;5.354;2022-07-29T01:04:46;5.75;;;3.33;;
41921;SDS011;27609;51.002;5.354;2022-07-29T01:07:13;8.57;;;3.20;;
41921;SDS011;27609;51.002;5.354;2022-07-29T01:09:39;4.88;;;2.78;;
41921;SDS011;27609;51.002;5.354;2022-07-29T01:12:07;11.73;;;3.42;;
41921;SDS011;27609;51.002;5.354;2022-07-29T01:14:33;7.25;;;2.70;;
41921;SDS011;27609;51.002;5.354;2022-07-29T01:17:02;9.18;;;3.17;;
41921;SDS011;27609;51.002;5.354;2022-07-29T01:22:33;7.38;;;2.83;;
41921;SDS011;27609;51.002;5.354;2022-07-29T01:28:17;4.82;;;2.45;;
41921;SDS011;27609;51.002;5.354;2022-07-29T01:30:57;7.82;;;2.50;;
41921;SDS011;27609;51.002;5.354;2022-07-29T01:33:25;5.95;;;2.53;;
41921;SDS011;27609;51.002;5.354;2022-07-29T01:36:13;9.82;;;2.42;;
41921;SDS011;27609;51.002;5.354;2022-07-29T01:38:42;5.45;;;2.90;;
41921;SDS011;27609;51.002;5.354;2022-07-29T01:41:14;4.53;;;2.30;;
41921;SDS011;27609;51.002;5.354;2022-07-29T01:43:44;6.00;;;3.00;;
41921;SDS011;27609;51.002;5.354;2022-07-29T01:46:31;5.07;;;2.40;;
41921;SDS011;27609;51.002;5.354;2022-07-29T01:49:17;4.18;;;2.60;;
41921;SDS011;27609;51.002;5.354;2022-07-29T01:51:52;6.72;;;2.90;;
41921;SDS011;27609;51.002;5.354;2022-07-29T01:57:08;4.47;;;2.38;;
41921;SDS011;27609;51.002;5.354;2022-07-29T01:59:36;8.13;;;2.75;;
41921;SDS011;27609;51.002;5.354;2022-07-29T02:02:03;7.22;;;2.53;;
41921;SDS011;27609;51.002;5.354;2022-07-29T02:04:33;6.75;;;2.67;;
41921;SDS011;27609;51.002;5.354;2022-07-29T02:07:03;7.63;;;3.38;;
41921;SDS011;27609;51.002;5.354;2022-07-29T02:09:32;6.15;;;3.13;;
41921;SDS011;27609;51.002;5.354;2022-07-29T02:12:00;4.15;;;3.10;;
41921;SDS011;27609;51.002;5.354;2022-07-29T02:14:31;8.13;;;2.90;;
41921;SDS011;27609;51.002;5.354;2022-07-29T02:17:00;7.30;;;2.67;;
41921;SDS011;27609;51.002;5.354;2022-07-29T02:19:28;8.20;;;3.05;;
41921;SDS011;27609;51.002;5.354;2022-07-29T02:21:57;6.88;;;2.88;;
41921;SDS011;27609;51.002;5.354;2022-07-29T02:24:24;5.57;;;3.33;;
41921;SDS011;27609;51.002;5.354;2022-07-29T02:26:53;10.82;;;3.33;;
41921;SDS011;27609;51.002;5.354;2022-07-29T02:29:22;5.90;;;3.17;;
41921;SDS011;27609;51.002;5.354;2022-07-29T02:31:50;10.60;;;3.67;;
41921;SDS011;27609;51.002;5.354;2022-07-29T02:34:18;6.38;;;3.47;;
41921;SDS011;27609;51.002;5.354;2022-07-29T02:36:45;6.38;;;3.08;;
41921;SDS011;27609;51.002;5.354;2022-07-29T02:39:12;9.02;;;3.40;;
41921;SDS011;27609;51.002;5.354;2022-07-29T02:41:42;6.38;;;3.08;;
41921;SDS011;27609;51.002;5.354;2022-07-29T02:44:10;5.88;;;2.80;;
41921;SDS011;27609;51.002;5.354;2022-07-29T02:46:41;6.47;;;2.80;;
41921;SDS011;27609;51.002;5.354;2022-07-29T02:49:28;7.03;;;2.72;;
41921;SDS011;27609;51.002;5.354;2022-07-29T02:54:56;6.25;;;2.85;;
41921;SDS011;27609;51.002;5.354;2022-07-29T02:59:53;3.65;;;2.50;;
41921;SDS011;27609;51.002;5.354;2022-07-29T03:02:23;9.60;;;3.00;;
41921;SDS011;27609;51.002;5.354;2022-07-29T03:04:52;4.47;;;2.80;;
41921;SDS011;27609;51.002;5.354;2022-07-29T03:07:19;6.38;;;3.47;;
41921;SDS011;27609;51.002;5.354;2022-07-29T03:09:46;3.53;;;2.80;;
41921;SDS011;27609;51.002;5.354;2022-07-29T03:12:12;6.00;;;2.47;;
41921;SDS011;27609;51.002;5.354;2022-07-29T03:14:39;5.03;;;3.25;;
41921;SDS011;27609;51.002;5.354;2022-07-29T03:17:06;6.10;;;3.53;;
41921;SDS011;27609;51.002;5.354;2022-07-29T03:19:34;9.55;;;2.97;;
41921;SDS011;27609;51.002;5.354;2022-07-29T03:22:01;6.28;;;3.03;;
41921;SDS011;27609;51.002;5.354;2022-07-29T03:24:31;9.63;;;3.75;;
41921;SDS011;27609;51.002;5.354;2022-07-29T03:26:59;8.73;;;3.17;;
41921;SDS011;27609;51.002;5.354;2022-07-29T03:29:25;8.65;;;3.72;;
41921;SDS011;27609;51.002;5.354;2022-07-29T03:31:51;10.18;;;3.85;;
41921;SDS011;27609;51.002;5.354;2022-07-29T03:34:18;5.50;;;3.58;;
41921;SDS011;27609;51.002;5.354;2022-07-29T03:36:43;5.63;;;3.28;;
41921;SDS011;27609;51.002;5.354;2022-07-29T03:39:09;9.32;;;4.03;;
41921;SDS011;27609;51.002;5.354;2022-07-29T03:41:38;4.65;;;3.35;;
41921;SDS011;27609;51.002;5.354;2022-07-29T03:44:06;8.98;;;3.63;;
41921;SDS011;27609;51.002;5.354;2022-07-29T03:46:34;7.00;;;3.53;;
41921;SDS011;27609;51.002;5.354;2022-07-29T03:49:01;9.32;;;3.72;;
41921;SDS011;27609;51.002;5.354;2022-07-29T03:51:28;5.32;;;3.47;;
41921;SDS011;27609;51.002;5.354;2022-07-29T03:53:55;10.82;;;4.20;;
41921;SDS011;27609;51.002;5.354;2022-07-29T03:56:22;10.10;;;3.40;;
41921;SDS011;27609;51.002;5.354;2022-07-29T03:58:49;8.98;;;3.72;;
41921;SDS011;27609;51.002;5.354;2022-07-29T04:01:18;7.60;;;3.60;;
41921;SDS011;27609;51.002;5.354;2022-07-29T04:03:45;9.05;;;3.53;;
41921;SDS011;27609;51.002;5.354;2022-07-29T04:06:11;8.35;;;4.32;;
41921;SDS011;27609;51.002;5.354;2022-07-29T04:08:37;8.38;;;4.85;;
41921;SDS011;27609;51.002;5.354;2022-07-29T04:11:04;6.07;;;3.30;;
41921;SDS011;27609;51.002;5.354;2022-07-29T04:13:30;7.45;;;3.75;;
41921;SDS011;27609;51.002;5.354;2022-07-29T04:15:57;6.10;;;5.18;;
41921;SDS011;27609;51.002;5.354;2022-07-29T04:18:23;5.80;;;3.70;;
41921;SDS011;27609;51.002;5.354;2022-07-29T04:20:49;6.78;;;4.72;;
41921;SDS011;27609;51.002;5.354;2022-07-29T04:23:15;7.43;;;4.55;;
41921;SDS011;27609;51.002;5.354;2022-07-29T04:25:41;7.53;;;4.40;;
41921;SDS011;27609;51.002;5.354;2022-07-29T04:28:08;5.70;;;4.38;;
41921;SDS011;27609;51.002;5.354;2022-07-29T04:30:35;9.57;;;5.35;;
41921;SDS011;27609;51.002;5.354;2022-07-29T04:33:02;9.00;;;4.68;;
41921;SDS011;27609;51.002;5.354;2022-07-29T04:35:30;6.65;;;4.25;;
41921;SDS011;27609;51.002;5.354;2022-07-29T04:37:58;9.85;;;4.47;;
41921;SDS011;27609;51.002;5.354;2022-07-29T04:40:24;7.18;;;4.63;;
41921;SDS011;27609;51.002;5.354;2022-07-29T04:42:50;9.60;;;4.22;;
41921;SDS011;27609;51.002;5.354;2022-07-29T04:45:16;9.13;;;4.60;;
41921;SDS011;27609;51.002;5.354;2022-07-29T04:47:42;8.13;;;4.35;;
41921;SDS011;27609;51.002;5.354;2022-07-29T04:50:08;6.10;;;4.45;;
41921;SDS011;27609;51.002;5.354;2022-07-29T04:52:35;7.68;;;4.35;;
41921;SDS011;27609;51.002;5.354;2022-07-29T04:55:02;7.90;;;4.50;;
41921;SDS011;27609;51.002;5.354;2022-07-29T04:57:30;6.22;;;4.00;;
41921;SDS011;27609;51.002;5.354;2022-07-29T04:59:55;8.35;;;5.05;;
41921;SDS011;27609;51.002;5.354;2022-07-29T05:02:21;9.30;;;4.30;;
41921;SDS011;27609;51.002;5.354;2022-07-29T05:04:47;7.45;;;4.38;;
41921;SDS011;27609;51.002;5.354;2022-07-29T05:07:13;7.32;;;4.38;;
41921;SDS011;27609;51.002;5.354;2022-07-29T05:09:39;7.22;;;4.13;;
41921;SDS011;27609;51.002;5.354;2022-07-29T05:12:05;5.90;;;4.00;;
41921;SDS011;27609;51.002;5.354;2022-07-29T05:14:32;8.05;;;5.00;;
41921;SDS011;27609;51.002;5.354;2022-07-29T05:16:58;6.85;;;4.65;;
41921;SDS011;27609;51.002;5.354;2022-07-29T05:19:24;7.38;;;4.32;;
41921;SDS011;27609;51.002;5.354;2022-07-29T05:21:50;9.10;;;4.68;;
41921;SDS011;27609;51.002;5.354;2022-07-29T05:24:15;5.60;;;4.18;;
41921;SDS011;27609;51.002;5.354;2022-07-29T05:26:41;5.47;;;4.80;;
41921;SDS011;27609;51.002;5.354;2022-07-29T05:29:08;7.10;;;4.50;;
41921;SDS011;27609;51.002;5.354;2022-07-29T05:31:34;4.53;;;3.97;;
41921;SDS011;27609;51.002;5.354;2022-07-29T05:34:00;6.78;;;4.75;;
41921;SDS011;27609;51.002;5.354;2022-07-29T05:36:26;4.70;;;3.90;;
41921;SDS011;27609;51.002;5.354;2022-07-29T05:38:52;6.88;;;4.57;;
41921;SDS011;27609;51.002;5.354;2022-07-29T05:41:18;7.38;;;4.68;;
41921;SDS011;27609;51.002;5.354;2022-07-29T05:43:44;8.95;;;5.15;;
41921;SDS011;27609;51.002;5.354;2022-07-29T05:46:10;8.25;;;5.22;;
41921;SDS011;27609;51.002;5.354;2022-07-29T05:48:36;11.40;;;5.20;;
41921;SDS011;27609;51.002;5.354;2022-07-29T05:51:04;11.52;;;4.82;;
41921;SDS011;27609;51.002;5.354;2022-07-29T05:53:30;7.88;;;5.40;;
41921;SDS011;27609;51.002;5.354;2022-07-29T05:55:56;7.72;;;5.22;;
41921;SDS011;27609;51.002;5.354;2022-07-29T05:58:22;6.57;;;4.95;;
41921;SDS011;27609;51.002;5.354;2022-07-29T06:00:48;8.32;;;5.18;;
41921;SDS011;27609;51.002;5.354;2022-07-29T06:03:14;8.75;;;4.55;;
41921;SDS011;27609;51.002;5.354;2022-07-29T06:05:40;5.68;;;4.00;;
41921;SDS011;27609;51.002;5.354;2022-07-29T06:08:06;4.47;;;3.70;;
41921;SDS011;27609;51.002;5.354;2022-07-29T06:10:34;8.40;;;3.70;;
41921;SDS011;27609;51.002;5.354;2022-07-29T06:13:00;5.18;;;3.72;;
41921;SDS011;27609;51.002;5.354;2022-07-29T06:15:26;5.80;;;3.25;;
41921;SDS011;27609;51.002;5.354;2022-07-29T06:17:52;7.70;;;4.50;;
41921;SDS011;27609;51.002;5.354;2022-07-29T06:20:17;6.97;;;3.78;;
41921;SDS011;27609;51.002;5.354;2022-07-29T06:22:44;7.00;;;3.72;;
41921;SDS011;27609;51.002;5.354;2022-07-29T06:25:09;5.15;;;4.22;;
41921;SDS011;27609;51.002;5.354;2022-07-29T06:27:37;6.20;;;4.95;;
41921;SDS011;27609;51.002;5.354;2022-07-29T06:30:03;6.68;;;3.80;;
41921;SDS011;27609;51.002;5.354;2022-07-29T06:32:32;5.40;;;4.03;;
41921;SDS011;27609;51.002;5.354;2022-07-29T06:34:58;7.43;;;3.67;;
41921;SDS011;27609;51.002;5.354;2022-07-29T06:37:24;8.00;;;3.65;;
41921;SDS011;27609;51.002;5.354;2022-07-29T06:39:50;6.47;;;3.88;;
41921;SDS011;27609;51.002;5.354;2022-07-29T06:42:36;7.70;;;3.60;;
41921;SDS011;27609;51.002;5.354;2022-07-29T06:45:02;5.43;;;3.83;;
41921;SDS011;27609;51.002;5.354;2022-07-29T06:47:28;6.53;;;3.50;;
41921;SDS011;27609;51.002;5.354;2022-07-29T06:49:54;5.60;;;3.10;;
41921;SDS011;27609;51.002;5.354;2022-07-29T06:52:20;7.68;;;3.17;;
41921;SDS011;27609;51.002;5.354;2022-07-29T06:54:46;5.45;;;3.45;;
41921;SDS011;27609;51.002;5.354;2022-07-29T06:57:13;7.40;;;3.10;;
41921;SDS011;27609;51.002;5.354;2022-07-29T06:59:39;4.22;;;3.22;;
41921;SDS011;27609;51.002;5.354;2022-07-29T07:02:05;4.18;;;2.95;;
41921;SDS011;27609;51.002;5.354;2022-07-29T07:04:31;5.22;;;3.22;;
41921;SDS011;27609;51.002;5.354;2022-07-29T07:06:57;4.13;;;2.60;;
41921;SDS011;27609;51.002;5.354;2022-07-29T07:09:24;4.28;;;2.40;;
41921;SDS011;27609;51.002;5.354;2022-07-29T07:11:50;6.90;;;3.00;;
41921;SDS011;27609;51.002;5.354;2022-07-29T07:14:15;4.47;;;2.85;;
41921;SDS011;27609;51.002;5.354;2022-07-29T07:16:41;6.03;;;2.75;;
41921;SDS011;27609;51.002;5.354;2022-07-29T07:19:07;4.47;;;2.55;;
41921;SDS011;27609;51.002;5.354;2022-07-29T07:21:33;10.48;;;4.43;;
41921;SDS011;27609;51.002;5.354;2022-07-29T07:23:59;4.82;;;3.00;;
41921;SDS011;27609;51.002;5.354;2022-07-29T07:26:25;7.32;;;3.35;;
41921;SDS011;27609;51.002;5.354;2022-07-29T07:28:52;5.45;;;3.65;;
41921;SDS011;27609;51.002;5.354;2022-07-29T07:31:18;7.10;;;4.10;;
41921;SDS011;27609;51.002;5.354;2022-07-29T07:33:44;5.00;;;3.05;;
41921;SDS011;27609;51.002;5.354;2022-07-29T07:36:09;8.32;;;2.90;;
41921;SDS011;27609;51.002;5.354;2022-07-29T07:38:35;5.43;;;3.40;;
41921;SDS011;27609;51.002;5.354;2022-07-29T07:41:01;5.95;;;3.08;;
41921;SDS011;27609;51.002;5.354;2022-07-29T07:43:27;6.95;;;2.85;;
41921;SDS011;27609;51.002;5.354;2022-07-29T07:45:53;4.13;;;2.78;;
41921;SDS011;27609;51.002;5.354;2022-07-29T07:48:19;5.65;;;3.40;;
41921;SDS011;27609;51.002;5.354;2022-07-29T07:50:45;6.28;;;3.20;;
41921;SDS011;27609;51.002;5.354;2022-07-29T07:53:11;3.80;;;3.42;;
41921;SDS011;27609;51.002;5.354;2022-07-29T07:55:40;6.15;;;4.60;;
41921;SDS011;27609;51.002;5.354;2022-07-29T07:58:07;4.40;;;4.00;;
41921;SDS011;27609;51.002;5.354;2022-07-29T08:00:34;6.88;;;3.55;;
41921;SDS011;27609;51.002;5.354;2022-07-29T08:02:59;4.22;;;3.30;;
41921;SDS011;27609;51.002;5.354;2022-07-29T08:05:25;4.45;;;2.80;;
41921;SDS011;27609;51.002;5.354;2022-07-29T08:07:51;7.05;;;3.05;;
41921;SDS011;27609;51.002;5.354;2022-07-29T08:10:18;6.63;;;3.15;;
41921;SDS011;27609;51.002;5.354;2022-07-29T08:13:04;4.80;;;3.17;;
41921;SDS011;27609;51.002;5.354;2022-07-29T08:15:31;4.47;;;2.58;;
41921;SDS011;27609;51.002;5.354;2022-07-29T08:17:57;4.93;;;2.97;;
41921;SDS011;27609;51.002;5.354;2022-07-29T08:20:23;6.22;;;3.47;;
41921;SDS011;27609;51.002;5.354;2022-07-29T08:22:49;4.22;;;2.35;;
41921;SDS011;27609;51.002;5.354;2022-07-29T08:25:17;4.05;;;3.00;;
41921;SDS011;27609;51.002;5.354;2022-07-29T08:27:45;5.20;;;3.17;;
41921;SDS011;27609;51.002;5.354;2022-07-29T08:30:12;4.28;;;3.03;;
41921;SDS011;27609;51.002;5.354;2022-07-29T08:32:39;10.68;;;3.30;;
41921;SDS011;27609;51.002;5.354;2022-07-29T08:35:05;4.32;;;2.33;;
41921;SDS011;27609;51.002;5.354;2022-07-29T08:37:31;5.65;;;2.85;;
41921;SDS011;27609;51.002;5.354;2022-07-29T08:39:58;4.18;;;2.30;;
41921;SDS011;27609;51.002;5.354;2022-07-29T08:42:24;4.88;;;2.78;;
41921;SDS011;27609;51.002;5.354;2022-07-29T08:44:50;7.38;;;3.17;;
41921;SDS011;27609;51.002;5.354;2022-07-29T08:47:16;3.92;;;2.38;;
41921;SDS011;27609;51.002;5.354;2022-07-29T08:49:42;3.90;;;2.95;;
41921;SDS011;27609;51.002;5.354;2022-07-29T08:52:10;8.82;;;3.30;;
41921;SDS011;27609;51.002;5.354;2022-07-29T08:54:37;3.47;;;2.63;;
41921;SDS011;27609;51.002;5.354;2022-07-29T08:57:05;6.50;;;2.50;;
41921;SDS011;27609;51.002;5.354;2022-07-29T08:59:32;7.10;;;2.75;;
41921;SDS011;27609;51.002;5.354;2022-07-29T09:02:00;6.27;;;2.93;;
41921;SDS011;27609;51.002;5.354;2022-07-29T09:04:27;7.30;;;3.30;;
41921;SDS011;27609;51.002;5.354;2022-07-29T09:06:57;4.28;;;2.40;;
41921;SDS011;27609;51.002;5.354;2022-07-29T09:09:27;5.25;;;2.67;;
41921;SDS011;27609;51.002;5.354;2022-07-29T09:11:53;4.30;;;2.90;;
41921;SDS011;27609;51.002;5.354;2022-07-29T09:14:20;2.20;;;2.00;;
41921;SDS011;27609;51.002;5.354;2022-07-29T09:16:55;6.30;;;3.17;;
41921;SDS011;27609;51.002;5.354;2022-07-29T09:21:52;4.35;;;2.20;;
41921;SDS011;27609;51.002;5.354;2022-07-29T09:24:25;5.05;;;2.70;;
41921;SDS011;27609;51.002;5.354;2022-07-29T09:27:00;5.60;;;2.35;;
41921;SDS011;27609;51.002;5.354;2022-07-29T09:29:27;4.00;;;2.50;;
41921;SDS011;27609;51.002;5.354;2022-07-29T09:31:53;4.55;;;2.03;;
41921;SDS011;27609;51.002;5.354;2022-07-29T09:34:26;5.05;;;2.45;;
41921;SDS011;27609;51.002;5.354;2022-07-29T09:36:55;4.47;;;1.58;;
41921;SDS011;27609;51.002;5.354;2022-07-29T09:39:28;3.30;;;2.05;;
41921;SDS011;27609;51.002;5.354;2022-07-29T09:42:00;3.85;;;1.73;;
41921;SDS011;27609;51.002;5.354;2022-07-29T09:44:48;2.83;;;1.80;;
41921;SDS011;27609;51.002;5.354;2022-07-29T09:47:16;4.75;;;2.45;;
41921;SDS011;27609;51.002;5.354;2022-07-29T09:52:29;4.25;;;2.28;;
41921;SDS011;27609;51.002;5.354;2022-07-29T09:55:08;4.68;;;2.35;;
41921;SDS011;27609;51.002;5.354;2022-07-29T09:57:38;9.07;;;2.40;;
41921;SDS011;27609;51.002;5.354;2022-07-29T10:00:05;3.22;;;2.30;;
41921;SDS011;27609;51.002;5.354;2022-07-29T10:02:36;3.40;;;2.45;;
41921;SDS011;27609;51.002;5.354;2022-07-29T10:05:05;4.20;;;1.83;;
41921;SDS011;27609;51.002;5.354;2022-07-29T10:07:45;5.70;;;2.65;;
41921;SDS011;27609;51.002;5.354;2022-07-29T10:10:18;4.35;;;2.22;;
41921;SDS011;27609;51.002;5.354;2022-07-29T10:12:49;4.70;;;2.10;;
41921;SDS011;27609;51.002;5.354;2022-07-29T10:15:16;4.22;;;1.85;;
41921;SDS011;27609;51.002;5.354;2022-07-29T10:17:42;3.85;;;2.22;;
41921;SDS011;27609;51.002;5.354;2022-07-29T10:20:09;4.28;;;2.00;;
41921;SDS011;27609;51.002;5.354;2022-07-29T10:22:35;3.40;;;1.90;;
41921;SDS011;27609;51.002;5.354;2022-07-29T10:25:02;3.15;;;1.70;;
41921;SDS011;27609;51.002;5.354;2022-07-29T10:27:28;1.92;;;1.38;;
41921;SDS011;27609;51.002;5.354;2022-07-29T10:29:54;1.95;;;1.60;;
41921;SDS011;27609;51.002;5.354;2022-07-29T10:43:44;3.70;;;1.90;;
41921;SDS011;27609;51.002;5.354;2022-07-29T10:46:12;2.45;;;1.73;;
41921;SDS011;27609;51.002;5.354;2022-07-29T10:59:50;3.28;;;2.05;;
41921;SDS011;27609;51.002;5.354;2022-07-29T11:05:08;3.65;;;2.28;;
41921;SDS011;27609;51.002;5.354;2022-07-29T11:07:39;3.72;;;2.25;;
41921;SDS011;27609;51.002;5.354;2022-07-29T11:10:26;2.45;;;1.83;;
41921;SDS011;27609;51.002;5.354;2022-07-29T11:12:52;3.72;;;1.98;;
41921;SDS011;27609;51.002;5.354;2022-07-29T11:15:21;2.80;;;2.00;;
41921;SDS011;27609;51.002;5.354;2022-07-29T11:20:42;3.47;;;1.40;;
41921;SDS011;27609;51.002;5.354;2022-07-29T11:23:20;5.82;;;1.75;;
41921;SDS011;27609;51.002;5.354;2022-07-29T11:47:46;5.72;;;1.70;;
41921;SDS011;27609;51.002;5.354;2022-07-29T11:53:01;2.50;;;1.67;;
41921;SDS011;27609;51.002;5.354;2022-07-29T11:55:28;5.07;;;1.48;;
41921;SDS011;27609;51.002;5.354;2022-07-29T11:57:57;4.70;;;1.87;;
41921;SDS011;27609;51.002;5.354;2022-07-29T12:00:26;2.13;;;1.57;;
41921;SDS011;27609;51.002;5.354;2022-07-29T12:02:55;2.10;;;1.42;;
41921;SDS011;27609;51.002;5.354;2022-07-29T12:05:30;3.05;;;1.60;;
41921;SDS011;27609;51.002;5.354;2022-07-29T12:08:03;3.75;;;2.03;;
41921;SDS011;27609;51.002;5.354;2022-07-29T12:10:31;5.43;;;1.90;;
41921;SDS011;27609;51.002;5.354;2022-07-29T12:12:57;4.80;;;1.85;;
41921;SDS011;27609;51.002;5.354;2022-07-29T12:15:23;4.85;;;1.90;;
41921;SDS011;27609;51.002;5.354;2022-07-29T12:17:51;4.90;;;1.73;;
41921;SDS011;27609;51.002;5.354;2022-07-29T12:20:25;4.65;;;1.73;;
41921;SDS011;27609;51.002;5.354;2022-07-29T12:22:52;7.72;;;2.13;;
41921;SDS011;27609;51.002;5.354;2022-07-29T12:28:00;3.08;;;1.60;;
41921;SDS011;27609;51.002;5.354;2022-07-29T12:30:44;5.10;;;1.92;;
41921;SDS011;27609;51.002;5.354;2022-07-29T12:33:18;2.13;;;1.52;;
41921;SDS011;27609;51.002;5.354;2022-07-29T12:35:49;3.92;;;1.50;;
41921;SDS011;27609;51.002;5.354;2022-07-29T12:38:17;3.50;;;1.90;;
41921;SDS011;27609;51.002;5.354;2022-07-29T12:40:44;2.38;;;1.35;;
41921;SDS011;27609;51.002;5.354;2022-07-29T12:43:15;1.77;;;1.42;;
41921;SDS011;27609;51.002;5.354;2022-07-29T12:45:48;3.20;;;1.40;;
41921;SDS011;27609;51.002;5.354;2022-07-29T12:48:15;2.55;;;1.67;;
41921;SDS011;27609;51.002;5.354;2022-07-29T12:50:54;2.13;;;1.50;;
41921;SDS011;27609;51.002;5.354;2022-07-29T12:53:23;2.95;;;1.40;;
41921;SDS011;27609;51.002;5.354;2022-07-29T12:55:52;3.15;;;1.17;;
41921;SDS011;27609;51.002;5.354;2022-07-29T12:58:27;3.60;;;2.28;;
41921;SDS011;27609;51.002;5.354;2022-07-29T13:01:04;2.22;;;1.40;;
41921;SDS011;27609;51.002;5.354;2022-07-29T13:08:59;2.70;;;1.30;;
41921;SDS011;27609;51.002;5.354;2022-07-29T13:11:43;6.88;;;1.60;;
41921;SDS011;27609;51.002;5.354;2022-07-29T13:14:11;4.07;;;1.45;;
41921;SDS011;27609;51.002;5.354;2022-07-29T13:17:01;4.78;;;1.58;;
41921;SDS011;27609;51.002;5.354;2022-07-29T13:19:32;4.45;;;1.50;;
41921;SDS011;27609;51.002;5.354;2022-07-29T13:22:07;5.40;;;1.58;;
41921;SDS011;27609;51.002;5.354;2022-07-29T13:27:19;4.60;;;1.27;;
41921;SDS011;27609;51.002;5.354;2022-07-29T13:29:49;2.35;;;1.30;;
41921;SDS011;27609;51.002;5.354;2022-07-29T13:32:27;4.50;;;1.15;;
41921;SDS011;27609;51.002;5.354;2022-07-29T13:34:54;2.97;;;1.40;;
41921;SDS011;27609;51.002;5.354;2022-07-29T13:37:21;1.77;;;1.15;;
41921;SDS011;27609;51.002;5.354;2022-07-29T13:39:47;3.45;;;1.30;;
41921;SDS011;27609;51.002;5.354;2022-07-29T13:42:13;4.25;;;1.60;;
41921;SDS011;27609;51.002;5.354;2022-07-29T13:44:39;3.50;;;1.38;;
41921;SDS011;27609;51.002;5.354;2022-07-29T13:47:06;4.45;;;1.40;;
41921;SDS011;27609;51.002;5.354;2022-07-29T13:49:33;2.45;;;1.50;;
41921;SDS011;27609;51.002;5.354;2022-07-29T13:52:00;4.05;;;1.30;;
41921;SDS011;27609;51.002;5.354;2022-07-29T13:54:26;1.95;;;1.40;;
41921;SDS011;27609;51.002;5.354;2022-07-29T13:56:52;4.68;;;1.52;;
41921;SDS011;27609;51.002;5.354;2022-07-29T13:59:18;2.55;;;1.38;;
41921;SDS011;27609;51.002;5.354;2022-07-29T14:01:44;3.13;;;1.30;;
41921;SDS011;27609;51.002;5.354;2022-07-29T14:04:10;1.90;;;1.50;;
41921;SDS011;27609;51.002;5.354;2022-07-29T14:06:36;1.80;;;1.35;;
41921;SDS011;27609;51.002;5.354;2022-07-29T14:09:03;1.38;;;1.05;;
41921;SDS011;27609;51.002;5.354;2022-07-29T14:11:34;4.03;;;1.63;;
41921;SDS011;27609;51.002;5.354;2022-07-29T14:14:00;4.03;;;1.48;;
41921;SDS011;27609;51.002;5.354;2022-07-29T14:16:27;5.57;;;1.48;;
41921;SDS011;27609;51.002;5.354;2022-07-29T14:18:52;3.00;;;1.60;;
41921;SDS011;27609;51.002;5.354;2022-07-29T14:21:18;3.30;;;1.40;;
41921;SDS011;27609;51.002;5.354;2022-07-29T14:23:44;2.65;;;1.30;;
41921;SDS011;27609;51.002;5.354;2022-07-29T14:26:10;3.33;;;1.48;;
41921;SDS011;27609;51.002;5.354;2022-07-29T14:28:36;4.07;;;1.90;;
41921;SDS011;27609;51.002;5.354;2022-07-29T14:31:02;4.03;;;1.80;;
41921;SDS011;27609;51.002;5.354;2022-07-29T14:33:28;3.88;;;1.63;;
41921;SDS011;27609;51.002;5.354;2022-07-29T14:35:54;3.53;;;2.00;;
41921;SDS011;27609;51.002;5.354;2022-07-29T14:38:20;5.03;;;1.60;;
41921;SDS011;27609;51.002;5.354;2022-07-29T14:40:45;5.45;;;1.63;;
41921;SDS011;27609;51.002;5.354;2022-07-29T14:43:12;7.53;;;1.95;;
41921;SDS011;27609;51.002;5.354;2022-07-29T14:45:39;4.68;;;1.60;;
41921;SDS011;27609;51.002;5.354;2022-07-29T14:48:05;6.45;;;1.40;;
41921;SDS011;27609;51.002;5.354;2022-07-29T14:50:31;7.20;;;2.20;;
41921;SDS011;27609;51.002;5.354;2022-07-29T14:52:58;5.55;;;1.77;;
41921;SDS011;27609;51.002;5.354;2022-07-29T14:55:24;3.72;;;1.63;;
41921;SDS011;27609;51.002;5.354;2022-07-29T14:57:50;3.97;;;1.60;;
41921;SDS011;27609;51.002;5.354;2022-07-29T15:00:16;3.92;;;1.38;;
41921;SDS011;27609;51.002;5.354;2022-07-29T15:02:42;8.15;;;2.03;;
41921;SDS011;27609;51.002;5.354;2022-07-29T15:05:08;3.17;;;1.58;;
41921;SDS011;27609;51.002;5.354;2022-07-29T15:07:34;4.50;;;1.80;;
41921;SDS011;27609;51.002;5.354;2022-07-29T15:10:01;5.78;;;1.88;;
41921;SDS011;27609;51.002;5.354;2022-07-29T15:12:27;2.58;;;1.15;;
41921;SDS011;27609;51.002;5.354;2022-07-29T15:14:53;4.85;;;1.60;;
41921;SDS011;27609;51.002;5.354;2022-07-29T15:17:20;6.38;;;1.58;;
41921;SDS011;27609;51.002;5.354;2022-07-29T15:19:46;6.47;;;1.63;;
41921;SDS011;27609;51.002;5.354;2022-07-29T15:22:12;2.53;;;1.30;;
41921;SDS011;27609;51.002;5.354;2022-07-29T15:24:38;4.97;;;1.60;;
41921;SDS011;27609;51.002;5.354;2022-07-29T15:27:04;3.10;;;1.63;;
41921;SDS011;27609;51.002;5.354;2022-07-29T15:29:31;3.65;;;1.50;;
41921;SDS011;27609;51.002;5.354;2022-07-29T15:31:57;9.52;;;2.28;;
41921;SDS011;27609;51.002;5.354;2022-07-29T15:34:23;3.92;;;1.40;;
41921;SDS011;27609;51.002;5.354;2022-07-29T15:36:51;6.80;;;1.60;;
41921;SDS011;27609;51.002;5.354;2022-07-29T15:39:17;5.57;;;1.58;;
41921;SDS011;27609;51.002;5.354;2022-07-29T15:41:44;2.00;;;1.52;;
41921;SDS011;27609;51.002;5.354;2022-07-29T15:44:10;3.17;;;1.45;;
41921;SDS011;27609;51.002;5.354;2022-07-29T15:46:36;4.53;;;1.70;;
41921;SDS011;27609;51.002;5.354;2022-07-29T15:49:20;6.07;;;2.03;;
41921;SDS011;27609;51.002;5.354;2022-07-29T15:51:46;3.60;;;1.80;;
41921;SDS011;27609;51.002;5.354;2022-07-29T15:54:12;6.68;;;2.13;;
41921;SDS011;27609;51.002;5.354;2022-07-29T15:56:39;3.67;;;1.77;;
41921;SDS011;27609;51.002;5.354;2022-07-29T15:59:04;4.45;;;1.60;;
41921;SDS011;27609;51.002;5.354;2022-07-29T16:01:30;6.15;;;2.53;;
41921;SDS011;27609;51.002;5.354;2022-07-29T16:03:57;4.07;;;1.40;;
41921;SDS011;27609;51.002;5.354;2022-07-29T16:06:23;3.63;;;1.48;;
41921;SDS011;27609;51.002;5.354;2022-07-29T16:08:49;6.70;;;1.85;;
41921;SDS011;27609;51.002;5.354;2022-07-29T16:11:15;1.60;;;1.40;;
41921;SDS011;27609;51.002;5.354;2022-07-29T16:13:41;3.55;;;1.95;;
41921;SDS011;27609;51.002;5.354;2022-07-29T16:16:07;5.65;;;1.60;;